Time;durP1;ratioP1;P1;durP2;ratioP2;P2;SDS_P1;SDS_P2;PMS_P1;PMS_P2;Temp;Humidity;BMP_temperature;BMP_pressure;BME280_temperature;BME280_humidity;BME280_pressure;Samples;Min_cycle;Max_cycle;Signal;HPM_P1;HPM_P2
2023/08/18 00:00:15;;;;;;;;;25.00;25.00;;;;;25.69;100.00;101157.44;5074530;27;45383;-76
2023/08/18 00:02:40;;;;;;;;;23.67;21.33;;;;;25.67;100.00;101153.91;5052750;28;45354;-75
2023/08/18 00:05:06;;;;;;;;;21.33;19.67;;;;;25.67;100.00;101150.31;5079210;27;54665;-75
2023/08/18 00:07:32;;;;;;;;;21.33;20.00;;;;;25.63;100.00;101148.75;5081593;27;45496;-75
2023/08/18 00:09:57;;;;;;;;;22.67;22.00;;;;;25.60;100.00;101149.75;5078610;27;45418;-74
2023/08/18 00:12:22;;;;;;;;;25.33;23.00;;;;;25.59;100.00;101137.19;5076803;28;61196;-75
2023/08/18 00:14:48;;;;;;;;;29.33;25.00;;;;;25.56;100.00;101142.72;5076243;28;70029;-76
2023/08/18 00:17:13;;;;;;;;;27.67;25.00;;;;;25.56;100.00;101142.72;5082683;27;45399;-75
2023/08/18 00:19:39;;;;;;;;;23.67;22.33;;;;;25.56;100.00;101140.88;5077197;27;62278;-76
2023/08/18 00:22:04;;;;;;;;;28.00;23.33;;;;;25.54;100.00;101148.19;5077326;28;45574;-75
2023/08/18 00:24:29;;;;;;;;;20.00;19.00;;;;;25.51;100.00;101147.44;5077303;28;45745;-76
2023/08/18 00:26:55;;;;;;;;;25.00;24.33;;;;;25.51;100.00;101150.16;5076408;27;68596;-76
2023/08/18 00:29:20;;;;;;;;;21.67;20.33;;;;;25.45;100.00;101145.91;5077070;28;45244;-75
2023/08/18 00:31:45;;;;;;;;;18.00;16.00;;;;;25.44;100.00;101140.59;5081125;27;56361;-76
2023/08/18 00:34:11;;;;;;;;;26.33;25.00;;;;;25.43;100.00;101141.53;5075140;27;67376;-75
2023/08/18 00:36:36;;;;;;;;;23.33;21.00;;;;;25.42;100.00;101135.25;5076647;27;45181;-73
2023/08/18 00:39:02;;;;;;;;;27.67;21.33;;;;;25.41;100.00;101138.91;5076098;28;62476;-74
2023/08/18 00:41:28;;;;;;;;;20.67;20.67;;;;;25.42;100.00;101131.69;5076957;28;45364;-73
2023/08/18 00:43:53;;;;;;;;;25.33;23.33;;;;;25.37;100.00;101133.72;5075971;27;46423;-74
2023/08/18 00:46:19;;;;;;;;;29.67;25.00;;;;;25.32;100.00;101139.31;5076040;28;45742;-77
2023/08/18 00:48:44;;;;;;;;;27.33;23.33;;;;;25.30;100.00;101131.28;5076580;28;45310;-76
2023/08/18 00:51:10;;;;;;;;;26.67;26.00;;;;;25.31;100.00;101134.88;5057707;28;51093;-73
2023/08/18 00:53:37;;;;;;;;;29.67;26.33;;;;;25.30;100.00;101133.09;5058546;28;46512;-75
2023/08/18 00:56:02;;;;;;;;;28.67;27.67;;;;;25.24;100.00;101136.06;5076248;28;45363;-75
2023/08/18 00:58:29;;;;;;;;;24.67;24.67;;;;;25.27;100.00;101130.53;5059795;28;45438;-75
2023/08/18 01:00:54;;;;;;;;;25.00;23.00;;;;;25.25;100.00;101130.63;5076601;28;47434;-76
2023/08/18 01:03:19;;;;;;;;;26.00;25.00;;;;;25.23;100.00;101134.31;5057789;27;45482;-74
2023/08/18 01:05:45;;;;;;;;;30.33;25.33;;;;;25.20;100.00;101139.88;5075174;27;68678;-76
2023/08/18 01:08:10;;;;;;;;;27.33;24.00;;;;;25.17;100.00;101135.47;5075421;27;63021;-74
2023/08/18 01:10:47;;;;;;;;;32.33;27.33;;;;;25.16;100.00;101127.44;5075617;28;61761;-74
2023/08/18 01:13:23;;;;;;;;;23.67;22.33;;;;;25.13;100.00;101132.97;5058010;28;47725;-75
2023/08/18 01:15:52;;;;;;;;;23.67;20.67;;;;;25.08;100.00;101138.59;5058564;28;45377;-75
2023/08/18 01:18:19;;;;;;;;;27.33;23.33;;;;;25.06;100.00;101143.19;5075531;28;63464;-75
2023/08/18 01:20:44;;;;;;;;;22.33;21.00;;;;;25.09;100.00;101137.66;5075077;28;60248;-75
2023/08/18 01:23:10;;;;;;;;;27.67;25.33;;;;;25.06;100.00;101122.44;5057742;28;45552;-75
2023/08/18 01:25:37;;;;;;;;;26.00;23.33;;;;;24.99;100.00;101120.94;5075502;28;45713;-75
2023/08/18 01:28:03;;;;;;;;;27.00;24.33;;;;;25.01;100.00;101132.53;5076471;27;45118;-75
2023/08/18 01:30:38;;;;;;;;;30.33;24.33;;;;;24.96;100.00;101121.06;5058557;28;45609;-75
2023/08/18 01:33:21;;;;;;;;;25.67;24.00;;;;;24.95;100.00;101121.13;5058017;28;46215;-74
2023/08/18 01:35:48;;;;;;;;;24.00;21.67;;;;;24.92;100.00;101119.44;5056715;28;45236;-75
2023/08/18 01:38:14;;;;;;;;;25.00;24.67;;;;;24.92;100.00;101113.16;5058526;28;45394;-74
2023/08/18 01:40:41;;;;;;;;;24.67;24.67;;;;;24.92;100.00;101121.25;5062714;27;55856;-75
2023/08/18 01:43:07;;;;;;;;;26.33;24.00;;;;;24.89;100.00;101116.00;5075343;28;47117;-74
2023/08/18 01:45:34;;;;;;;;;26.33;24.33;;;;;24.87;100.00;101117.88;5075191;27;64020;-75
2023/08/18 01:47:59;;;;;;;;;32.33;21.33;;;;;24.85;100.00;101111.69;5075323;28;45328;-75
2023/08/18 01:50:25;;;;;;;;;34.00;26.00;;;;;24.83;100.00;101112.63;5074979;28;60711;-75
2023/08/18 01:52:50;;;;;;;;;30.33;27.33;;;;;24.84;100.00;101110.81;5075048;27;46444;-75
2023/08/18 01:55:16;;;;;;;;;29.33;27.00;;;;;24.80;100.00;101118.16;5075419;28;45498;-75
2023/08/18 01:57:41;;;;;;;;;28.67;26.33;;;;;24.81;100.00;101113.63;5075425;28;45342;-75
2023/08/18 02:00:07;;;;;;;;;32.33;26.00;;;;;24.81;100.00;101113.63;5074623;28;60690;-75
2023/08/18 02:02:32;;;;;;;;;37.00;32.67;;;;;24.75;100.00;101105.81;5075566;28;45599;-74
2023/08/18 02:04:57;;;;;;;;;28.00;25.67;;;;;24.70;100.00;101110.53;5074381;28;64193;-74
2023/08/18 02:07:23;;;;;;;;;25.00;25.00;;;;;24.73;100.00;101119.38;5075534;28;45264;-75
2023/08/18 02:09:48;;;;;;;;;22.33;22.33;;;;;24.75;100.00;101112.06;5075570;27;45416;-75
2023/08/18 02:12:14;;;;;;;;;31.00;27.67;;;;;24.70;100.00;101114.09;5074390;28;67126;-75
2023/08/18 02:14:39;;;;;;;;;30.67;29.00;;;;;24.69;100.00;101104.25;5074852;28;45606;-75
2023/08/18 02:17:04;;;;;;;;;30.33;26.33;;;;;24.68;100.00;101098.91;5075081;28;64209;-75
2023/08/18 02:19:30;;;;;;;;;32.00;30.00;;;;;24.67;100.00;101099.88;5075983;28;45556;-75
2023/08/18 02:21:55;;;;;;;;;29.33;29.00;;;;;24.65;100.00;101099.03;5075168;27;45702;-74
2023/08/18 02:24:20;;;;;;;;;26.67;24.00;;;;;24.66;100.00;101101.69;5074514;28;57391;-75
2023/08/18 02:26:46;;;;;;;;;29.67;25.67;;;;;24.60;100.00;101106.47;5070898;27;45322;-75
2023/08/18 02:29:11;;;;;;;;;29.33;26.33;;;;;24.60;100.00;101106.47;5077802;27;46839;-76
2023/08/18 02:31:36;;;;;;;;;32.67;30.00;;;;;24.59;100.00;101102.88;5079418;27;69076;-74
2023/08/18 02:34:02;;;;;;;;;30.00;27.67;;;;;24.57;100.00;101102.09;5074488;28;58937;-74
2023/08/18 02:36:28;;;;;;;;;27.00;27.00;;;;;24.55;100.00;101101.25;5078794;27;45295;-74
2023/08/18 02:38:53;;;;;;;;;29.33;26.33;;;;;24.51;100.00;101084.31;5077974;27;61649;-76
2023/08/18 02:41:18;;;;;;;;;32.33;29.67;;;;;24.50;100.00;101087.97;5078171;28;69806;-74
2023/08/18 02:43:48;;;;;;;;;33.67;31.33;;;;;24.49;100.00;101088.91;5076590;27;63141;-74
2023/08/18 02:46:13;;;;;;;;;28.00;26.33;;;;;24.50;100.00;101087.97;5078616;28;45568;-75
2023/08/18 02:48:39;;;;;;;;;32.67;28.67;;;;;24.48;100.00;101092.53;5060300;28;45453;-75
2023/08/18 02:51:06;;;;;;;;;36.33;30.67;;;;;24.45;100.00;101091.78;5078152;27;45752;-75
2023/08/18 02:53:32;;;;;;;;;33.67;30.00;;;;;24.46;100.00;101085.47;5078819;28;45330;-76
2023/08/18 02:56:01;;;;;;;;;29.00;27.67;;;;;24.45;100.00;101081.91;5075587;28;45454;-75
2023/08/18 02:58:27;;;;;;;;;33.67;27.67;;;;;24.45;100.00;101076.50;5079003;28;45411;-75
2023/08/18 03:00:53;;;;;;;;;32.33;30.67;;;;;24.47;100.00;101079.13;5077794;28;46559;-74
2023/08/18 03:03:19;;;;;;;;;29.33;26.33;;;;;24.50;100.00;101084.38;5078596;27;46604;-75
2023/08/18 03:05:46;;;;;;;;;25.67;24.00;;;;;24.55;100.00;101077.84;5077965;27;45416;-75
2023/08/18 03:08:11;;;;;;;;;36.00;30.00;;;;;24.56;100.00;101078.72;5060216;28;45335;-74
2023/08/18 03:10:36;;;;;;;;;34.67;29.00;;;;;24.52;100.00;101072.56;5077823;27;45604;-76
2023/08/18 03:13:03;;;;;;;;;30.33;26.00;;;;;24.48;100.00;101065.53;5077949;28;45391;-75
2023/08/18 03:15:29;;;;;;;;;36.00;31.33;;;;;24.47;100.00;101063.78;5078304;28;45527;-75
2023/08/18 03:17:55;;;;;;;;;35.00;32.67;;;;;24.45;100.00;101065.69;5078819;28;45198;-75
2023/08/18 03:20:21;;;;;;;;;42.67;34.67;;;;;24.44;100.00;101055.81;5077409;27;66040;-74
2023/08/18 03:22:46;;;;;;;;;35.00;32.00;;;;;24.40;100.00;101064.13;5078442;28;45329;-74
2023/08/18 03:25:11;;;;;;;;;30.33;26.67;;;;;24.37;100.00;101065.13;5077411;28;49321;-75
2023/08/18 03:27:37;;;;;;;;;37.00;31.33;;;;;24.36;100.00;101059.81;5079108;27;45284;-74
2023/08/18 03:30:03;;;;;;;;;40.00;31.33;;;;;24.37;100.00;101058.84;5077541;27;46604;-74
2023/08/18 03:32:29;;;;;;;;;33.33;30.67;;;;;24.35;100.00;101048.13;5077921;28;45573;-75
2023/08/18 03:34:54;;;;;;;;;36.00;31.00;;;;;24.31;100.00;101050.03;5078134;27;45547;-75
2023/08/18 03:37:20;;;;;;;;;30.67;29.67;;;;;24.29;100.00;101048.38;5078323;27;45489;-75
2023/08/18 03:39:45;;;;;;;;;38.00;31.67;;;;;24.26;100.00;101056.59;5078243;28;46066;-76
2023/08/18 03:42:11;;;;;;;;;36.33;30.00;;;;;24.29;100.00;101059.16;5076838;28;64224;-75
2023/08/18 03:44:37;;;;;;;;;31.00;29.67;;;;;24.25;100.00;101044.91;5076323;28;45466;-74
2023/08/18 03:47:02;;;;;;;;;42.67;32.67;;;;;24.27;100.00;101056.50;5076793;27;45614;-77
2023/08/18 03:49:28;;;;;;;;;33.67;32.00;;;;;24.23;100.00;101051.31;5077278;28;46437;-75
2023/08/18 03:51:53;;;;;;;;;34.67;30.00;;;;;24.20;100.00;101056.84;5078035;28;45353;-74
2023/08/18 03:54:18;;;;;;;;;33.67;30.00;;;;;24.17;100.00;101051.56;5076870;28;54045;-74
2023/08/18 03:56:44;;;;;;;;;36.67;33.33;;;;;24.18;100.00;101048.81;5077849;28;45251;-77
2023/08/18 03:59:09;;;;;;;;;34.33;30.67;;;;;24.22;100.00;101045.03;5058246;28;68262;-76
2023/08/18 04:01:34;;;;;;;;;33.33;30.00;;;;;24.11;100.00;101050.00;5076650;28;66273;-76
2023/08/18 04:04:00;;;;;;;;;37.00;33.67;;;;;24.08;100.00;101049.28;5075981;28;58493;-75
2023/08/18 04:06:25;;;;;;;;;38.67;33.00;;;;;24.05;100.00;101047.56;5077815;28;46758;-75
2023/08/18 04:09:02;;;;;;;;;39.00;33.67;;;;;24.07;100.00;101059.16;5077479;28;45714;-75
2023/08/18 04:11:28;;;;;;;;;37.00;33.00;;;;;24.01;100.00;101056.72;5076765;28;45327;-75
2023/08/18 04:13:53;;;;;;;;;35.67;31.33;;;;;23.95;100.00;101059.66;5077105;28;65305;-74
2023/08/18 04:16:19;;;;;;;;;41.00;32.67;;;;;23.96;100.00;101056.91;5077381;28;45617;-77
2023/08/18 04:18:44;;;;;;;;;38.67;33.33;;;;;23.95;100.00;101059.66;5076909;28;71262;-75
2023/08/18 04:21:09;;;;;;;;;35.33;32.00;;;;;23.91;100.00;101049.94;5076601;28;57673;-76
2023/08/18 04:23:35;;;;;;;;;34.67;29.67;;;;;23.88;100.00;101044.69;5076360;28;59548;-74
2023/08/18 04:26:00;;;;;;;;;37.33;31.33;;;;;23.91;100.00;101047.25;5076772;27;61620;-77
2023/08/18 04:28:25;;;;;;;;;36.67;32.33;;;;;23.92;100.00;101052.59;5077024;28;45505;-74
2023/08/18 04:30:51;;;;;;;;;41.33;33.33;;;;;23.92;100.00;101041.81;5076768;28;61477;-75
2023/08/18 04:33:16;;;;;;;;;35.67;33.33;;;;;23.92;100.00;101049.03;5075368;28;56858;-74
2023/08/18 04:35:41;;;;;;;;;37.00;33.33;;;;;23.86;100.00;101046.56;5076977;28;62157;-74
2023/08/18 04:38:07;;;;;;;;;39.00;32.33;;;;;23.87;100.00;101049.22;5076088;28;66027;-74
2023/08/18 04:40:32;;;;;;;;;36.33;32.00;;;;;23.85;100.00;101042.97;5076546;28;45522;-75
2023/08/18 04:42:58;;;;;;;;;32.00;31.00;;;;;23.85;100.00;101042.09;5076699;27;45445;-74
2023/08/18 04:45:23;;;;;;;;;34.67;32.67;;;;;23.85;100.00;101045.69;5075540;27;60499;-75
2023/08/18 04:47:48;;;;;;;;;35.67;28.67;;;;;23.84;100.00;101043.06;5074443;28;62752;-74
2023/08/18 04:50:14;;;;;;;;;37.00;30.00;;;;;23.78;100.00;101038.78;5058548;28;45488;-74
2023/08/18 04:52:39;;;;;;;;;35.33;29.67;;;;;23.76;100.00;101038.84;5076436;28;45462;-74
2023/08/18 04:55:05;;;;;;;;;36.33;32.67;;;;;23.77;100.00;101042.44;5075896;28;61488;-73
2023/08/18 04:57:30;;;;;;;;;37.33;31.00;;;;;23.76;100.00;101038.84;5076157;28;45396;-75
2023/08/18 04:59:56;;;;;;;;;39.33;32.00;;;;;23.75;100.00;101037.06;5074742;28;64128;-75
2023/08/18 05:02:21;;;;;;;;;31.33;29.67;;;;;23.75;100.00;101038.91;5076320;28;45395;-75
2023/08/18 05:04:46;;;;;;;;;36.00;32.00;;;;;23.73;100.00;101038.97;5075428;28;55002;-75
2023/08/18 05:07:12;;;;;;;;;30.00;29.67;;;;;23.73;100.00;101040.78;5075718;28;52834;-74
2023/08/18 05:09:38;;;;;;;;;32.67;31.67;;;;;23.74;100.00;101043.41;5076019;28;45464;-74
2023/08/18 05:12:07;;;;;;;;;38.00;31.00;;;;;23.75;100.00;101046.97;5077011;27;45549;-75
2023/08/18 05:14:33;;;;;;;;;38.00;33.67;;;;;23.74;100.00;101046.09;5076473;28;45617;-76
2023/08/18 05:16:58;;;;;;;;;37.67;33.00;;;;;23.75;100.00;101047.84;5071487;27;45473;-74
2023/08/18 05:19:23;;;;;;;;;40.00;34.33;;;;;23.84;100.00;101038.53;5076528;28;45276;-74
2023/08/18 05:21:49;;;;;;;;;35.33;31.67;;;;;23.90;100.00;101034.72;5072062;28;45271;-74
2023/08/18 05:24:14;;;;;;;;;38.33;32.33;;;;;23.84;100.00;101038.53;5075508;28;57644;-76
2023/08/18 05:26:39;;;;;;;;;31.67;29.33;;;;;23.87;100.00;101034.84;5077868;27;45442;-74
2023/08/18 05:29:05;;;;;;;;;42.33;33.67;;;;;23.89;100.00;101024.88;5075846;28;64221;-73
2023/08/18 05:31:30;;;;;;;;;41.33;34.00;;;;;23.90;100.00;101016.69;5074967;28;59950;-75
2023/08/18 05:33:56;;;;;;;;;37.67;32.67;;;;;23.90;100.00;101010.44;5075842;27;45557;-77
2023/08/18 05:36:21;;;;;;;;;34.00;31.33;;;;;23.93;100.00;101010.31;5075800;28;46375;-74
2023/08/18 05:38:47;;;;;;;;;37.33;32.67;;;;;23.97;100.00;101009.22;5075108;28;68807;-74
2023/08/18 05:41:13;;;;;;;;;31.67;30.67;;;;;23.97;100.00;101014.63;5076352;28;45455;-74
2023/08/18 05:43:40;;;;;;;;;41.00;32.67;;;;;23.99;100.00;101021.72;5057931;28;45593;-74
2023/08/18 05:46:06;;;;;;;;;39.00;33.67;;;;;24.03;100.00;101034.16;5075407;27;45755;-74
2023/08/18 05:48:32;;;;;;;;;35.67;33.00;;;;;24.07;100.00;101025.91;5075957;28;45465;-75
2023/08/18 05:50:58;;;;;;;;;41.33;34.33;;;;;24.18;100.00;101023.63;5075443;27;45464;-74
2023/08/18 05:53:23;;;;;;;;;38.00;32.33;;;;;24.17;100.00;101029.97;5076094;28;45338;-74
2023/08/18 05:55:50;;;;;;;;;43.00;34.00;;;;;24.23;100.00;101024.31;5075842;27;51030;-74
2023/08/18 05:58:16;;;;;;;;;35.33;31.67;;;;;24.25;100.00;101023.31;5074898;28;45442;-74
2023/08/18 06:00:41;;;;;;;;;37.00;32.33;;;;;24.28;100.00;101019.59;5074122;28;64906;-75
2023/08/18 06:03:06;;;;;;;;;41.00;34.67;;;;;24.31;100.00;101016.78;5075853;27;45397;-75
2023/08/18 06:05:34;;;;;;;;;38.67;33.00;;;;;24.37;100.00;101015.66;5074636;27;66887;-73
2023/08/18 06:07:59;;;;;;;;;39.67;33.67;;;;;24.39;100.00;101006.56;5075187;28;45166;-75
2023/08/18 06:10:24;;;;;;;;;38.00;32.00;;;;;24.42;100.00;101014.53;5074546;28;45590;-75
2023/08/18 06:12:50;;;;;;;;;34.33;29.33;;;;;24.49;100.00;101015.13;5075307;28;59733;-75
2023/08/18 06:15:19;;;;;;;;;42.33;35.00;;;;;24.59;100.00;101013.78;5075063;28;47438;-74
2023/08/18 06:17:45;;;;;;;;;37.00;33.33;;;;;24.66;100.00;101006.28;5071936;28;45478;-76
2023/08/18 06:20:11;;;;;;;;;43.33;34.00;;;;;24.71;100.00;101013.22;5072911;28;45391;-77
2023/08/18 06:22:37;;;;;;;;;39.00;32.33;;;;;24.76;100.00;101005.78;5075670;28;45316;-74
2023/08/18 06:25:04;;;;;;;;;36.00;33.00;;;;;24.84;100.00;101013.56;5074396;27;45564;-76
2023/08/18 06:27:30;;;;;;;;;35.33;32.67;;;;;24.79;100.00;101002.09;5074801;28;45596;-73
2023/08/18 06:30:00;;;;;;;;;38.67;34.33;;;;;24.77;100.00;101006.69;5071139;27;53732;-77
2023/08/18 06:32:26;;;;;;;;;35.67;30.33;;;;;24.83;100.00;101010.00;5071741;28;45461;-74
2023/08/18 06:34:51;;;;;;;;;37.00;33.00;;;;;24.90;100.00;101007.88;5071872;27;46865;-75
2023/08/18 06:37:20;;;;;;;;;35.00;31.67;;;;;24.95;100.00;101008.56;5072203;27;45372;-74
2023/08/18 06:39:45;;;;;;;;;33.67;31.33;;;;;24.98;100.00;101015.63;5073540;28;45465;-73
2023/08/18 06:42:14;;;;;;;;;31.00;29.67;;;;;25.01;100.00;101016.38;5072095;27;45419;-72
2023/08/18 06:44:39;;;;;;;;;41.33;33.00;;;;;25.06;100.00;101014.38;5067986;28;46296;-72
2023/08/18 06:47:04;;;;;;;;;38.67;31.33;;;;;25.07;100.00;101013.41;5071970;27;45463;-73
2023/08/18 06:49:30;;;;;;;;;42.67;33.00;;;;;25.11;100.00;101016.84;5071098;28;45367;-72
2023/08/18 06:51:55;;;;;;;;;39.00;33.00;;;;;25.18;100.00;101007.50;5066632;28;52482;-72
2023/08/18 06:54:21;;;;;;;;;36.67;31.33;;;;;25.20;100.00;101004.75;5071557;28;45617;-74
2023/08/18 06:56:46;;;;;;;;;37.67;31.33;;;;;25.25;100.00;101000.00;5074011;28;56958;-73
2023/08/18 06:59:12;;;;;;;;;37.67;32.67;;;;;25.26;100.00;101005.34;5074058;28;49263;-75
2023/08/18 07:01:38;;;;;;;;;36.00;31.33;;;;;25.26;100.00;101008.03;5074519;28;46461;-74
2023/08/18 07:04:04;;;;;;;;;38.00;33.33;;;;;25.32;100.00;101007.75;5072227;27;46471;-72
2023/08/18 07:06:30;;;;;;;;;37.33;32.67;;;;;25.33;100.00;101011.31;5071586;27;45419;-72
2023/08/18 07:08:56;;;;;;;;;40.33;32.33;;;;;25.41;100.00;101014.53;5073026;28;45472;-72
2023/08/18 07:11:21;;;;;;;;;39.00;32.00;;;;;25.45;100.00;101016.13;5073013;27;45603;-74
2023/08/18 07:13:46;;;;;;;;;39.33;30.00;;;;;25.50;100.00;101014.09;5070495;28;68355;-74
2023/08/18 07:16:12;;;;;;;;;41.67;33.00;;;;;25.58;100.00;101013.72;5070078;28;45448;-72
2023/08/18 07:18:37;;;;;;;;;36.33;32.00;;;;;25.59;100.00;101010.94;5073838;27;45457;-75
2023/08/18 07:21:04;;;;;;;;;36.00;30.33;;;;;25.65;100.00;100998.94;5072755;28;59746;-72
2023/08/18 07:23:29;;;;;;;;;41.67;36.00;;;;;25.64;100.00;100999.91;5076212;28;45836;-76
2023/08/18 07:25:55;;;;;;;;;38.00;31.00;;;;;25.69;100.00;101002.38;5077425;28;45523;-72
2023/08/18 07:28:20;;;;;;;;;36.67;31.33;;;;;25.72;100.00;101003.09;5075729;27;45507;-74
2023/08/18 07:30:46;;;;;;;;;32.33;29.33;;;;;25.76;100.00;101009.28;5077526;28;45464;-75
2023/08/18 07:33:12;;;;;;;;;30.00;28.33;;;;;25.78;100.00;101012.75;5076994;27;46679;-74
2023/08/18 07:35:37;;;;;;;;;33.00;30.33;;;;;25.83;100.00;101021.53;5075965;28;45387;-73
2023/08/18 07:38:02;;;;;;;;;33.33;30.67;;;;;25.86;100.00;101022.28;5076441;28;60761;-73
2023/08/18 07:40:28;;;;;;;;;34.00;32.33;;;;;25.92;100.00;101031.91;5076718;28;45451;-74
2023/08/18 07:42:54;;;;;;;;;37.67;30.00;;;;;25.99;100.00;101029.75;5174472;22;45998;-73
2023/08/18 07:45:19;;;;;;;;;29.00;29.00;;;;;26.07;100.00;101030.28;5056074;28;45578;-74
2023/08/18 07:47:45;;;;;;;;;33.67;29.67;;;;;26.19;100.00;101024.22;5056374;28;53816;-72
2023/08/18 07:50:10;;;;;;;;;32.00;28.67;;;;;26.28;100.00;101023.75;5056049;28;45493;-73
2023/08/18 07:52:36;;;;;;;;;40.00;31.00;;;;;26.38;100.00;101018.75;5037353;28;48832;-74
2023/08/18 07:55:06;;;;;;;;;39.33;31.00;;;;;26.40;100.00;101016.84;5039018;28;45424;-73
2023/08/18 07:57:33;;;;;;;;;32.00;29.67;;;;;26.40;100.00;101016.84;5056484;28;45344;-73
2023/08/18 07:59:58;;;;;;;;;29.67;26.00;;;;;26.38;100.00;101025.03;5056725;28;45363;-74
2023/08/18 08:02:23;;;;;;;;;33.00;30.67;;;;;26.35;100.00;101027.03;5055887;28;70336;-73
2023/08/18 08:04:50;;;;;;;;;34.33;29.67;;;;;26.38;100.00;101032.28;5055314;28;67349;-73
2023/08/18 08:07:15;;;;;;;;;25.67;25.33;;;;;26.41;100.00;101034.81;5056330;28;46239;-75
2023/08/18 08:09:41;;;;;;;;;30.00;30.00;;;;;26.49;100.00;101035.34;5056978;28;45415;-75
2023/08/18 08:12:06;;;;;;;;;28.67;27.67;;;;;26.56;100.00;101033.19;5056405;28;45543;-72
2023/08/18 08:14:32;;;;;;;;;29.67;27.67;;;;;26.61;100.00;101044.66;5056591;28;45405;-76
2023/08/18 08:16:58;;;;;;;;;28.33;28.33;;;;;26.68;100.00;101037.94;5055582;28;61563;-72
2023/08/18 08:19:24;;;;;;;;;28.67;27.33;;;;;26.75;100.00;101034.00;5060482;28;45451;-74
2023/08/18 08:21:49;;;;;;;;;28.67;28.00;;;;;26.79;100.00;101024.75;5056204;28;45348;-73
2023/08/18 08:24:15;;;;;;;;;31.33;28.67;;;;;26.90;100.00;101029.59;5056699;28;45458;-73
2023/08/18 08:26:40;;;;;;;;;29.67;29.33;;;;;27.01;100.00;101031.72;5055936;28;49130;-75
2023/08/18 08:29:05;;;;;;;;;30.00;25.00;;;;;27.15;100.00;101030.00;5055094;28;45534;-72
2023/08/18 08:31:31;;;;;;;;;35.33;31.33;;;;;27.31;100.00;101026.47;5055116;28;64412;-73
2023/08/18 08:33:57;;;;;;;;;30.33;28.67;;;;;27.47;100.00;101010.19;5055976;28;45909;-73
2023/08/18 08:36:22;;;;;;;;;25.33;24.00;;;;;27.69;100.00;101008.00;5056797;28;45470;-75
2023/08/18 08:38:47;;;;;;;;;27.00;24.00;;;;;27.85;100.00;101002.59;5056308;28;45968;-73
2023/08/18 08:41:13;;;;;;;;;26.33;26.00;;;;;28.04;100.00;101015.97;5054910;28;68577;-76
2023/08/18 08:43:38;;;;;;;;;29.33;28.00;;;;;28.13;100.00;101004.59;5055431;28;45539;-72
2023/08/18 08:46:04;;;;;;;;;19.33;18.67;;;;;28.19;100.00;101001.50;5055550;28;64616;-73
2023/08/18 08:48:36;;;;;;;;;33.33;28.33;;;;;28.27;100.00;101007.31;5053921;28;45407;-74
2023/08/18 08:51:04;;;;;;;;;23.67;23.00;;;;;28.28;100.00;101011.78;5054061;28;45514;-74
2023/08/18 08:53:36;;;;;;;;;27.33;22.00;;;;;28.28;100.00;100998.19;5055333;28;45328;-74
2023/08/18 08:56:03;;;;;;;;;31.33;25.67;;;;;28.32;100.00;101007.94;5038501;28;45388;-73
2023/08/18 08:58:31;;;;;;;;;25.00;22.00;;;;;28.37;100.00;100992.25;5055674;28;45375;-75
2023/08/18 09:00:58;;;;;;;;;24.33;19.00;;;;;28.52;100.00;100985.03;5050187;28;47435;-74
2023/08/18 09:03:23;;;;;;;;;21.00;19.67;;;;;28.63;100.00;100979.78;5034884;28;45446;-73
2023/08/18 09:05:48;;;;;;;;;20.33;17.67;;;;;28.72;100.00;100970.22;5055888;28;45365;-76
2023/08/18 09:08:14;;;;;;;;;24.33;21.67;;;;;28.82;100.00;100974.09;5052303;28;45308;-73
2023/08/18 09:10:39;;;;;;;;;26.00;22.33;;;;;28.90;100.00;100970.88;5055363;28;69921;-73
2023/08/18 09:13:05;;;;;;;;;24.00;22.33;;;;;28.97;100.00;100975.84;5053679;28;46524;-76
2023/08/18 09:15:31;;;;;;;;;27.33;22.67;;;;;29.07;100.00;100973.41;5034043;28;45530;-72
2023/08/18 09:17:57;;;;;;;;;22.33;21.00;;;;;29.14;100.00;100973.94;5055897;28;56814;-73
2023/08/18 09:20:23;;;;;;;;;17.33;16.33;;;;;29.24;100.00;100966.88;5050576;28;45635;-75
2023/08/18 09:22:53;;;;;;;;;24.00;20.00;;;;;29.27;100.00;100966.72;5036416;28;45379;-73
2023/08/18 09:25:19;;;;;;;;;22.00;19.67;;;;;29.32;100.00;100958.25;5055192;28;45624;-74
2023/08/18 09:27:44;;;;;;;;;23.00;20.33;;;;;29.39;100.00;100954.16;5053689;28;61676;-75
2023/08/18 09:30:10;;;;;;;;;18.33;18.33;;;;;29.52;100.00;100957.81;5055637;28;46289;-75
2023/08/18 09:32:36;;;;;;;;;20.00;16.00;;;;;29.69;100.00;100945.84;5055982;28;45477;-75
2023/08/18 09:35:01;;;;;;;;;22.67;21.00;;;;;29.90;100.00;100946.25;5055761;28;45296;-75
2023/08/18 09:37:32;;;;;;;;;16.33;16.33;;;;;30.04;100.00;100945.28;5055768;28;45474;-74
2023/08/18 09:39:58;;;;;;;;;20.67;19.33;;;;;30.13;100.00;100947.41;5055523;28;60831;-75
2023/08/18 09:42:24;;;;;;;;;17.67;17.67;;;;;30.24;100.00;100944.81;5055681;28;45419;-74
2023/08/18 09:44:49;;;;;;;;;18.00;18.00;;;;;30.28;100.00;100940.91;5054275;28;45242;-76
2023/08/18 09:47:17;;;;;;;;;16.67;16.67;;;;;30.29;100.00;100934.47;5059292;28;50484;-73
2023/08/18 09:49:44;;;;;;;;;20.00;18.33;;;;;30.27;100.00;100928.25;5055531;28;46734;-73
2023/08/18 09:52:14;;;;;;;;;18.33;18.00;;;;;30.28;100.00;100927.28;5037841;28;45239;-74
2023/08/18 09:54:55;;;;;;;;;19.67;18.00;;;;;30.30;100.00;100925.31;5053908;28;45417;-73
2023/08/18 09:57:28;;;;;;;;;22.00;18.00;;;;;30.38;100.00;100925.66;5038166;28;45452;-73
2023/08/18 09:59:57;;;;;;;;;16.67;16.67;;;;;30.44;100.00;100925.22;5037747;28;45366;-73
2023/08/18 10:02:34;;;;;;;;;18.67;16.00;;;;;30.52;100.00;100922.84;5055297;28;45335;-73
2023/08/18 10:05:00;;;;;;;;;16.67;16.33;;;;;30.60;100.00;100921.41;5055264;28;45383;-73
2023/08/18 10:07:26;;;;;;;;;19.33;17.33;;;;;30.70;100.00;100909.75;5055787;28;45529;-74
2023/08/18 10:09:53;;;;;;;;;16.33;16.33;;;;;30.76;100.00;100911.16;5055339;28;45367;-76
2023/08/18 10:12:20;;;;;;;;;20.00;17.33;;;;;30.80;100.00;100909.97;5036949;28;45481;-75
2023/08/18 10:14:45;;;;;;;;;18.00;16.00;;;;;30.82;100.00;100916.19;5055701;28;45321;-73
2023/08/18 10:17:11;;;;;;;;;20.00;17.33;;;;;30.89;100.00;100916.59;5037644;28;45466;-73
2023/08/18 10:19:47;;;;;;;;;18.33;15.67;;;;;30.89;100.00;100911.13;5036467;28;46302;-73
2023/08/18 10:22:17;;;;;;;;;20.00;16.33;;;;;30.92;100.00;100900.03;5052240;28;45684;-73
2023/08/18 10:24:46;;;;;;;;;19.00;18.00;;;;;30.92;100.00;100905.47;5055670;28;45396;-75
2023/08/18 10:27:27;;;;;;;;;16.33;16.33;;;;;30.98;100.00;100894.13;5050374;28;45532;-73
2023/08/18 10:30:07;;;;;;;;;18.33;17.00;;;;;30.96;100.00;100899.69;5046603;28;45653;-72
2023/08/18 10:32:33;;;;;;;;;18.67;17.67;;;;;30.95;100.00;100897.09;5054131;28;45755;-74
2023/08/18 10:35:22;;;;;;;;;18.00;18.00;;;;;30.93;100.00;100894.44;5054844;28;45444;-74
2023/08/18 10:38:07;;;;;;;;;18.33;17.00;;;;;30.98;100.00;100903.16;5054969;28;45514;-76
2023/08/18 10:40:34;;;;;;;;;15.33;14.33;;;;;31.14;100.00;100899.31;5054658;28;46582;-74
2023/08/18 10:43:03;;;;;;;;;16.67;16.33;;;;;31.22;100.00;100905.94;5053882;28;45396;-73
2023/08/18 10:45:29;;;;;;;;;13.33;12.33;;;;;31.31;100.00;100904.41;5054853;28;45466;-75
2023/08/18 10:47:59;;;;;;;;;13.67;13.67;;;;;31.43;100.00;100898.06;5054629;28;45327;-75
2023/08/18 10:50:29;;;;;;;;;18.33;17.67;;;;;31.54;100.00;100897.25;5055019;28;45693;-75
2023/08/18 10:52:55;;;;;;;;;12.67;12.67;;;;;31.62;100.00;100904.81;5053899;28;45510;-74
2023/08/18 10:55:24;;;;;;;;;17.00;15.67;;;;;31.70;100.00;100899.66;5055457;28;45521;-74
2023/08/18 10:57:50;;;;;;;;;18.67;16.33;;;;;31.70;100.00;100895.06;5055842;28;45525;-72